Time;durP1;ratioP1;P1;durP2;ratioP2;P2;SDS_P1;SDS_P2;PMS_P1;PMS_P2;Temp;Humidity;BMP_temperature;BMP_pressure;BME280_temperature;BME280_humidity;BME280_pressure;Samples;Min_cycle;Max_cycle;Signal;HPM_P1;HPM_P2
2023/09/13 00:01:33;;;;;;;3.90;1.13;;;;;;;10.94;100.00;101676.63;5071482;28;20044;-65
2023/09/13 00:04:00;;;;;;;5.90;1.58;;;;;;;10.64;100.00;101696.50;5070352;28;20152;-65
2023/09/13 00:06:27;;;;;;;5.93;1.95;;;;;;;10.27;100.00;101692.91;5066232;28;20053;-65
2023/09/13 00:08:53;;;;;;;4.18;1.48;;;;;;;9.91;100.00;101667.50;5061355;28;20061;-65
2023/09/13 00:11:20;;;;;;;3.92;1.20;;;;;;;9.84;100.00;101667.63;5068519;28;20064;-66
2023/09/13 00:13:47;;;;;;;4.78;1.30;;;;;;;9.88;100.00;101678.91;5071339;28;20122;-65
2023/09/13 00:16:14;;;;;;;4.55;1.27;;;;;;;9.76;100.00;101689.59;5071842;28;20048;-65
2023/09/13 00:18:40;;;;;;;5.75;1.45;;;;;;;9.62;100.00;101692.47;5071458;28;20071;-65
2023/09/13 00:21:10;;;;;;;5.68;1.42;;;;;;;9.57;100.00;101683.84;5070104;28;20161;-65
2023/09/13 00:23:37;;;;;;;4.43;1.67;;;;;;;9.72;100.00;101674.84;5070513;28;20041;-66
2023/09/13 00:26:04;;;;;;;6.60;1.35;;;;;;;9.67;100.00;101680.19;5053970;28;20119;-65
2023/09/13 00:28:32;;;;;;;6.15;1.45;;;;;;;9.83;100.00;101684.22;5069306;28;20098;-65
2023/09/13 00:30:59;;;;;;;4.18;1.20;;;;;;;9.91;100.00;101677.97;5068404;28;20048;-65
2023/09/13 00:33:26;;;;;;;5.10;1.30;;;;;;;9.83;100.00;101673.75;5068192;28;20040;-66
2023/09/13 00:35:56;;;;;;;4.72;1.10;;;;;;;9.92;100.00;101684.94;5064258;28;20586;-64
2023/09/13 00:38:23;;;;;;;11.48;1.58;;;;;;;9.84;100.00;101685.94;5066591;28;20060;-65
2023/09/13 00:40:49;;;;;;;4.32;1.25;;;;;;;9.75;100.00;101678.25;5071146;28;20053;-65
2023/09/13 00:43:16;;;;;;;6.63;1.30;;;;;;;9.70;100.00;101680.09;5070103;28;20041;-65
2023/09/13 00:45:43;;;;;;;5.90;1.55;;;;;;;9.54;100.00;101689.97;5071563;28;20057;-66
2023/09/13 00:48:10;;;;;;;5.10;2.03;;;;;;;9.45;100.00;101691.00;5071313;28;20052;-66
2023/09/13 00:50:42;;;;;;;3.97;1.30;;;;;;;9.16;100.00;101672.38;5070511;28;20058;-65
2023/09/13 00:53:19;;;;;;;3.65;1.30;;;;;;;9.05;100.00;101683.00;5060234;28;20045;-65
2023/09/13 00:55:49;;;;;;;5.88;1.52;;;;;;;8.95;100.00;101689.25;5067072;28;20053;-65
2023/09/13 00:58:18;;;;;;;4.18;1.35;;;;;;;8.92;100.00;101682.31;5063223;28;20049;-65
2023/09/13 01:00:48;;;;;;;3.05;1.27;;;;;;;8.93;100.00;101695.34;5068767;28;20057;-65
2023/09/13 01:03:16;;;;;;;7.68;1.58;;;;;;;8.90;100.00;101682.31;5070091;28;20437;-65
2023/09/13 01:05:44;;;;;;;4.35;1.40;;;;;;;9.03;100.00;101688.25;5070410;28;20135;-65
2023/09/13 01:08:11;;;;;;;3.83;1.20;;;;;;;9.01;100.00;101697.84;5069465;28;20064;-65
2023/09/13 01:10:38;;;;;;;2.63;1.13;;;;;;;9.04;100.00;101696.94;5068957;28;20385;-65
2023/09/13 01:13:04;;;;;;;5.82;1.63;;;;;;;9.10;100.00;101702.03;5069727;28;20060;-66
2023/09/13 01:15:37;;;;;;;4.65;1.30;;;;;;;9.21;100.00;101679.22;5069135;28;20472;-65
2023/09/13 01:18:17;;;;;;;9.50;1.50;;;;;;;9.16;100.00;101695.88;5070984;28;20055;-65
2023/09/13 01:21:22;;;;;;;8.25;1.48;;;;;;;9.26;100.00;101700.94;5058714;28;20059;-65
2023/09/13 01:24:26;;;;;;;3.45;1.33;;;;;;;9.11;100.00;101701.16;5059473;28;20051;-65
2023/09/13 01:27:44;;;;;;;3.67;1.30;;;;;;;8.69;100.00;101700.94;5067356;28;20048;-64
2023/09/13 01:30:12;;;;;;;18.55;2.70;;;;;;;8.38;100.00;101701.31;5041763;28;20137;-64
2023/09/13 01:32:38;;;;;;;8.18;1.40;;;;;;;8.15;100.00;101683.34;5066094;28;20091;-64
2023/09/13 01:35:05;;;;;;;4.88;1.50;;;;;;;8.27;100.00;101701.47;5066689;28;20132;-65
2023/09/13 01:37:32;;;;;;;4.30;1.30;;;;;;;8.33;100.00;101683.09;5065865;28;20060;-65
2023/09/13 01:40:00;;;;;;;5.68;1.52;;;;;;;8.48;100.00;101699.47;5068941;28;20080;-65
2023/09/13 01:42:30;;;;;;;4.05;1.38;;;;;;;8.35;100.00;101650.03;5069563;28;20055;-65
2023/09/13 01:44:57;;;;;;;2.85;1.15;;;;;;;8.76;100.00;101686.03;5081166;28;20052;-64
2023/09/13 01:47:27;;;;;;;6.10;1.73;;;;;;;8.58;100.00;101687.19;5067629;28;20386;-65
2023/09/13 01:49:55;;;;;;;3.00;1.20;;;;;;;8.81;100.00;101698.13;5063733;28;20048;-64
2023/09/13 01:52:22;;;;;;;4.88;1.55;;;;;;;8.77;100.00;101706.06;5069007;28;20080;-65
2023/09/13 01:54:49;;;;;;;4.35;1.40;;;;;;;8.73;100.00;101700.03;5067819;28;20044;-64
2023/09/13 01:57:16;;;;;;;2.10;1.00;;;;;;;8.72;100.00;101706.13;5070572;28;20048;-65
2023/09/13 01:59:42;;;;;;;3.38;1.13;;;;;;;8.82;100.00;101691.16;5068919;28;20055;-65
2023/09/13 02:02:09;;;;;;;4.18;1.30;;;;;;;9.00;100.00;101692.66;5068359;28;20059;-65
2023/09/13 02:04:35;;;;;;;2.63;1.10;;;;;;;8.86;100.00;101696.31;5064754;28;20045;-65
2023/09/13 02:07:03;;;;;;;3.35;1.25;;;;;;;8.57;100.00;101660.22;5069214;28;20052;-65
2023/09/13 02:09:29;;;;;;;3.35;1.05;;;;;;;8.88;100.00;101691.94;5068451;28;20075;-65
2023/09/13 02:11:56;;;;;;;2.65;1.10;;;;;;;8.87;100.00;101712.84;5068397;28;20105;-66
2023/09/13 02:14:23;;;;;;;3.53;1.20;;;;;;;8.98;100.00;101697.00;5067728;28;20041;-64
2023/09/13 02:16:49;;;;;;;3.55;1.30;;;;;;;8.98;100.00;101716.19;5062504;28;20063;-64
2023/09/13 02:19:17;;;;;;;4.53;1.25;;;;;;;8.99;100.00;101706.59;5059324;28;20048;-66
2023/09/13 02:21:45;;;;;;;4.40;1.30;;;;;;;8.86;100.00;101712.00;5067637;28;20148;-65
2023/09/13 02:24:12;;;;;;;2.38;1.08;;;;;;;8.85;100.00;101722.47;5068050;28;20075;-65
2023/09/13 02:26:40;;;;;;;3.10;1.10;;;;;;;8.80;100.00;101709.50;5050974;28;20091;-65
2023/09/13 02:29:06;;;;;;;5.15;1.40;;;;;;;8.84;100.00;101711.16;5065417;28;20173;-65
2023/09/13 02:31:33;;;;;;;3.15;1.20;;;;;;;8.86;100.00;101706.78;5067421;28;20545;-65
2023/09/13 02:34:01;;;;;;;3.80;1.20;;;;;;;8.73;100.00;101723.53;5062298;28;20036;-65
2023/09/13 02:36:28;;;;;;;3.88;1.10;;;;;;;8.88;100.00;101718.06;5069094;28;20398;-64
2023/09/13 02:38:58;;;;;;;4.45;1.40;;;;;;;8.79;100.00;101722.56;5065395;28;20052;-65
2023/09/13 02:41:24;;;;;;;4.05;1.27;;;;;;;8.75;100.00;101716.53;5067382;28;20080;-65
2023/09/13 02:43:51;;;;;;;4.07;1.30;;;;;;;8.86;100.00;101730.28;5067183;28;20067;-65
2023/09/13 02:46:18;;;;;;;5.00;1.40;;;;;;;8.51;100.00;101728.16;5059475;28;20041;-65
2023/09/13 02:48:45;;;;;;;4.50;1.30;;;;;;;8.24;100.00;101711.94;5063716;28;20097;-65
2023/09/13 02:51:13;;;;;;;4.13;1.40;;;;;;;8.22;100.00;101728.50;5057218;28;20806;-65
2023/09/13 02:53:40;;;;;;;3.55;1.10;;;;;;;8.30;100.00;101724.03;5095913;28;20147;-66
2023/09/13 02:56:08;;;;;;;5.47;1.15;;;;;;;8.36;100.00;101732.66;5068738;28;20494;-65
2023/09/13 02:58:35;;;;;;;3.78;1.10;;;;;;;8.10;100.00;101699.06;5064848;28;20450;-66
2023/09/13 03:01:04;;;;;;;4.75;1.10;;;;;;;8.17;100.00;101726.78;5061475;28;20365;-65
2023/09/13 03:03:32;;;;;;;4.25;1.35;;;;;;;8.10;100.00;101722.53;5063608;28;20040;-65
2023/09/13 03:06:12;;;;;;;4.03;1.30;;;;;;;8.01;100.00;101730.47;5068434;28;20052;-65
2023/09/13 03:08:39;;;;;;;3.85;1.40;;;;;;;7.94;100.00;101715.75;5062752;28;20494;-65
2023/09/13 03:11:24;;;;;;;4.75;1.40;;;;;;;8.33;100.00;101721.41;5064056;28;20133;-65
2023/09/13 03:13:51;;;;;;;4.50;1.48;;;;;;;8.35;100.00;101709.19;5066320;28;20044;-65
2023/09/13 03:16:20;;;;;;;3.67;1.85;;;;;;;8.33;100.00;101709.19;5068064;28;20496;-64
2023/09/13 03:18:48;;;;;;;4.72;1.30;;;;;;;8.59;100.00;101718.47;5068162;28;20048;-68
2023/09/13 03:21:18;;;;;;;11.85;1.42;;;;;;;8.66;100.00;101722.72;5072411;28;20083;-69
2023/09/13 03:23:48;;;;;;;3.00;1.13;;;;;;;8.71;100.00;101722.66;5067582;28;20446;-69
2023/09/13 03:26:18;;;;;;;3.65;1.30;;;;;;;8.63;100.00;101716.69;5071163;28;20044;-68
2023/09/13 03:28:47;;;;;;;6.25;1.48;;;;;;;8.38;100.00;101708.31;5070990;28;20367;-68
2023/09/13 03:31:17;;;;;;;5.55;1.27;;;;;;;8.35;100.00;101710.03;5070421;28;20054;-68
2023/09/13 03:33:45;;;;;;;4.13;1.20;;;;;;;8.44;100.00;101710.84;5071443;28;20055;-68
2023/09/13 03:36:14;;;;;;;3.72;1.27;;;;;;;8.47;100.00;101709.06;5070961;28;20105;-69
2023/09/13 03:38:42;;;;;;;4.43;1.27;;;;;;;8.58;100.00;101708.91;5070689;28;20064;-68
2023/09/13 03:41:11;;;;;;;3.92;1.05;;;;;;;8.56;100.00;101710.69;5065747;28;20049;-68
2023/09/13 03:43:38;;;;;;;6.25;1.55;;;;;;;8.53;100.00;101708.09;5064551;28;20078;-67
2023/09/13 03:46:06;;;;;;;4.95;1.30;;;;;;;8.57;100.00;101708.94;5054823;28;20087;-68
2023/09/13 03:48:35;;;;;;;3.17;1.17;;;;;;;8.54;100.00;101692.44;5078387;28;20059;-68
2023/09/13 03:51:03;;;;;;;3.17;1.10;;;;;;;8.58;100.00;101688.03;5072101;28;20044;-68
2023/09/13 03:53:30;;;;;;;1.83;1.00;;;;;;;8.42;100.00;101700.44;5070042;28;20084;-68
2023/09/13 03:55:58;;;;;;;4.45;1.25;;;;;;;8.47;100.00;101703.84;5071605;28;20052;-68
2023/09/13 03:58:25;;;;;;;5.70;1.50;;;;;;;8.52;100.00;101709.00;5070637;28;20063;-68
2023/09/13 04:00:53;;;;;;;5.32;1.42;;;;;;;8.41;100.00;101689.97;5070104;28;21021;-68
2023/09/13 04:03:21;;;;;;;4.45;1.23;;;;;;;8.50;100.00;101708.19;5063714;28;20587;-68
2023/09/13 04:05:48;;;;;;;4.53;1.33;;;;;;;8.59;100.00;101705.44;5070950;28;20055;-68
2023/09/13 04:08:15;;;;;;;3.63;1.23;;;;;;;8.53;100.00;101698.56;5071322;28;20052;-67
2023/09/13 04:10:41;;;;;;;5.88;1.20;;;;;;;8.38;100.00;101695.25;5071179;28;20131;-69
2023/09/13 04:13:08;;;;;;;3.83;1.20;;;;;;;8.02;100.00;101659.19;5070633;28;20059;-67
2023/09/13 04:15:35;;;;;;;3.70;1.20;;;;;;;7.89;100.00;101702.75;5071559;28;20052;-68
2023/09/13 04:18:03;;;;;;;4.43;1.23;;;;;;;7.85;100.00;101702.84;5069714;28;20406;-68
2023/09/13 04:20:30;;;;;;;3.58;1.08;;;;;;;7.83;100.00;101700.25;5068823;28;20048;-68
2023/09/13 04:22:58;;;;;;;2.17;1.10;;;;;;;7.90;100.00;101703.66;5071326;28;20053;-68
2023/09/13 04:25:25;;;;;;;4.82;1.52;;;;;;;7.85;100.00;101703.69;5068425;28;20048;-68
2023/09/13 04:27:52;;;;;;;4.53;1.20;;;;;;;7.90;100.00;101707.13;5072032;28;20049;-68
2023/09/13 04:30:18;;;;;;;4.20;1.10;;;;;;;8.02;100.00;101720.88;5068980;28;20052;-68
2023/09/13 04:32:47;;;;;;;5.72;1.30;;;;;;;7.91;100.00;101713.19;5071145;28;20048;-68
2023/09/13 04:35:14;;;;;;;2.05;1.08;;;;;;;7.88;100.00;101708.88;5058646;28;20102;-68
2023/09/13 04:37:42;;;;;;;2.13;1.10;;;;;;;8.03;100.00;101699.16;5056794;28;20131;-68
2023/09/13 04:40:08;;;;;;;2.42;1.10;;;;;;;8.18;100.00;101705.06;5062469;28;20049;-67
2023/09/13 04:42:37;;;;;;;3.25;1.10;;;;;;;8.27;100.00;101709.28;5056807;28;20110;-69
2023/09/13 04:45:04;;;;;;;2.47;1.10;;;;;;;8.22;100.00;101710.25;5070764;28;20422;-67
2023/09/13 04:47:31;;;;;;;6.47;1.45;;;;;;;8.02;100.00;101711.34;5069093;28;20486;-69
2023/09/13 04:49:58;;;;;;;3.20;1.33;;;;;;;8.18;100.00;101718.09;5065910;28;20090;-67
2023/09/13 04:52:24;;;;;;;3.85;1.20;;;;;;;8.24;100.00;101709.31;5064356;28;20049;-68
2023/09/13 04:54:51;;;;;;;3.13;1.00;;;;;;;8.32;100.00;101709.22;5065710;28;20170;-68
2023/09/13 04:57:18;;;;;;;3.10;1.15;;;;;;;8.21;100.00;101677.19;5070974;28;20044;-68
2023/09/13 04:59:48;;;;;;;4.07;1.17;;;;;;;8.44;100.00;101703.88;5065231;28;20079;-67
2023/09/13 05:02:15;;;;;;;3.58;1.58;;;;;;;8.33;100.00;101714.41;5065194;28;20117;-68
2023/09/13 05:04:42;;;;;;;3.03;1.13;;;;;;;8.34;100.00;101716.16;5070483;28;20123;-68
2023/09/13 05:07:09;;;;;;;2.92;1.30;;;;;;;8.52;100.00;101706.41;5068503;28;20084;-68
2023/09/13 05:09:37;;;;;;;4.72;1.20;;;;;;;8.43;100.00;101704.78;5064275;28;20414;-69
2023/09/13 05:12:05;;;;;;;3.42;1.20;;;;;;;8.38;100.00;101709.16;5070154;28;20060;-68
2023/09/13 05:14:31;;;;;;;5.22;1.48;;;;;;;8.35;100.00;101710.03;5069452;28;20065;-68
2023/09/13 05:16:58;;;;;;;6.70;1.90;;;;;;;8.26;100.00;101711.91;5055350;28;20057;-68
2023/09/13 05:19:25;;;;;;;4.18;1.20;;;;;;;8.08;100.00;101706.03;5060941;28;20052;-68
2023/09/13 05:21:51;;;;;;;3.33;1.10;;;;;;;8.27;100.00;101717.13;5061286;28;20094;-68
2023/09/13 05:24:18;;;;;;;4.18;1.48;;;;;;;8.30;100.00;101718.81;5067116;28;20682;-68
2023/09/13 05:26:45;;;;;;;2.47;1.05;;;;;;;8.35;100.00;101720.47;5054406;28;20049;-67
2023/09/13 05:29:12;;;;;;;4.45;1.33;;;;;;;8.23;100.00;101715.41;5061399;28;20114;-68
2023/09/13 05:31:38;;;;;;;3.75;1.30;;;;;;;8.12;100.00;101710.31;5051450;28;20052;-68
2023/09/13 05:34:05;;;;;;;4.47;1.55;;;;;;;8.44;100.00;101729.97;5065087;28;20059;-68
2023/09/13 05:36:32;;;;;;;2.83;1.30;;;;;;;8.43;100.00;101717.81;5051998;28;20049;-68
2023/09/13 05:38:58;;;;;;;2.67;1.10;;;;;;;8.54;100.00;101728.13;5068716;28;20056;-68
2023/09/13 05:41:25;;;;;;;3.35;1.23;;;;;;;8.63;100.00;101732.34;5060092;28;20053;-69
2023/09/13 05:43:52;;;;;;;4.07;1.20;;;;;;;8.67;100.00;101732.28;5057278;28;20056;-67
2023/09/13 05:46:18;;;;;;;3.38;1.10;;;;;;;8.63;100.00;101738.44;5054754;28;20056;-69
2023/09/13 05:48:45;;;;;;;3.25;1.00;;;;;;;8.73;100.00;101734.81;5051453;28;20068;-69
2023/09/13 05:51:12;;;;;;;2.53;1.05;;;;;;;8.68;100.00;101727.94;5055295;28;20051;-68
2023/09/13 05:53:39;;;;;;;2.95;1.10;;;;;;;8.54;100.00;101721.16;5057612;28;20054;-68
2023/09/13 05:56:10;;;;;;;4.32;1.20;;;;;;;8.59;100.00;101730.66;5061238;28;20059;-68
2023/09/13 05:58:37;;;;;;;2.60;1.00;;;;;;;8.64;100.00;101739.28;5065003;28;20049;-68
2023/09/13 06:01:05;;;;;;;6.93;1.30;;;;;;;8.60;100.00;101750.66;5061309;28;20056;-68
2023/09/13 06:03:32;;;;;;;3.90;1.02;;;;;;;8.75;100.00;101737.41;5069113;28;20051;-66
2023/09/13 06:05:59;;;;;;;4.15;1.55;;;;;;;8.71;100.00;101735.72;5062312;28;20075;-67
2023/09/13 06:08:26;;;;;;;2.25;1.10;;;;;;;8.69;100.00;101742.69;5068480;28;20579;-67
2023/09/13 06:10:53;;;;;;;4.35;1.25;;;;;;;8.81;100.00;101739.06;5062289;28;20051;-67
2023/09/13 06:13:19;;;;;;;3.17;1.10;;;;;;;8.87;100.00;101741.56;5069120;28;20517;-68
2023/09/13 06:15:46;;;;;;;3.83;1.20;;;;;;;8.88;100.00;101743.31;5068145;28;20392;-67
2023/09/13 06:18:13;;;;;;;4.18;1.45;;;;;;;8.86;100.00;101747.72;5068994;28;20106;-66
2023/09/13 06:20:41;;;;;;;4.22;1.13;;;;;;;8.92;100.00;101747.59;5067189;28;20047;-67
2023/09/13 06:23:37;;;;;;;2.50;1.27;;;;;;;9.02;100.00;101761.41;5067657;28;20063;-67
2023/09/13 06:26:05;;;;;;;3.00;1.20;;;;;;;9.08;100.00;101761.31;5061893;28;20044;-67
2023/09/13 06:28:32;;;;;;;3.45;1.20;;;;;;;9.02;100.00;101757.03;5063153;28;20056;-67
2023/09/13 06:31:00;;;;;;;2.65;1.33;;;;;;;9.04;100.00;101757.00;5069354;28;20127;-68
2023/09/13 06:33:31;;;;;;;6.50;1.30;;;;;;;9.01;100.00;101764.88;5062591;28;20482;-68
2023/09/13 06:36:00;;;;;;;3.75;1.20;;;;;;;9.07;100.00;101759.59;5063329;28;20053;-68
2023/09/13 06:38:29;;;;;;;3.63;1.38;;;;;;;8.98;100.00;101751.88;5065370;28;20049;-68
2023/09/13 06:40:57;;;;;;;4.55;1.05;;;;;;;9.12;100.00;101768.22;5068855;28;20121;-68
2023/09/13 06:43:25;;;;;;;5.00;1.10;;;;;;;9.18;100.00;101764.66;5069788;28;20082;-68
2023/09/13 06:45:54;;;;;;;5.75;1.83;;;;;;;9.19;100.00;101774.19;5066135;28;20057;-68
2023/09/13 06:48:30;;;;;;;2.65;1.20;;;;;;;9.28;100.00;101776.69;5067049;28;20111;-68
2023/09/13 06:50:59;;;;;;;2.20;0.90;;;;;;;9.35;100.00;101749.56;5067380;28;20056;-68
2023/09/13 06:53:28;;;;;;;2.70;1.05;;;;;;;9.69;100.00;101764.69;5066662;28;20429;-68
2023/09/13 06:56:11;;;;;;;1.67;0.95;;;;;;;11.11;100.00;101765.31;5069423;28;20076;-68
2023/09/13 06:58:42;;;;;;;5.28;1.25;;;;;;;11.99;100.00;101770.13;5066653;28;20052;-68
2023/09/13 07:01:12;;;;;;;5.72;2.35;;;;;;;12.44;100.00;101783.75;5056296;28;20103;-69
2023/09/13 07:03:59;;;;;;;5.55;1.73;;;;;;;12.62;100.00;101782.34;5058821;28;20456;-69
2023/09/13 07:06:33;;;;;;;3.88;1.45;;;;;;;12.65;100.00;101787.53;5073027;28;20159;-69
2023/09/13 07:09:00;;;;;;;2.28;1.15;;;;;;;13.00;100.00;101801.38;5066397;28;20127;-70
2023/09/13 07:11:28;;;;;;;2.38;1.00;;;;;;;13.44;100.00;101799.16;5054253;28;20127;-70
2023/09/13 07:13:55;;;;;;;3.88;1.30;;;;;;;13.49;100.00;101806.88;5060542;28;20480;-70
2023/09/13 07:16:22;;;;;;;5.28;1.27;;;;;;;13.65;100.00;101801.97;5062325;28;20044;-70
2023/09/13 07:18:48;;;;;;;3.15;1.05;;;;;;;13.85;100.00;101804.78;5056388;28;20060;-69
2023/09/13 07:21:15;;;;;;;5.70;1.13;;;;;;;14.27;100.00;101799.84;5071560;28;20052;-69
2023/09/13 07:23:42;;;;;;;3.72;0.98;;;;;;;14.27;100.00;101792.81;5065719;28;20045;-68
2023/09/13 07:26:09;;;;;;;3.08;1.00;;;;;;;14.20;100.00;101800.06;5071131;28;20040;-69
2023/09/13 07:28:36;;;;;;;3.55;1.10;;;;;;;14.20;100.00;101789.53;5061905;28;20242;-70
2023/09/13 07:31:09;;;;;;;3.88;0.95;;;;;;;14.06;100.00;101783.91;5072848;28;20048;-70
2023/09/13 07:33:36;;;;;;;5.88;0.93;;;;;;;14.35;100.00;101784.63;5072868;28;20146;-70
2023/09/13 07:36:03;;;;;;;6.22;1.02;;;;;;;14.54;100.00;101785.66;5059492;28;20420;-70
2023/09/13 07:38:30;;;;;;;4.90;1.05;;;;;;;14.72;100.00;101786.75;5073229;28;20058;-70
2023/09/13 07:40:56;;;;;;;5.90;1.13;;;;;;;14.48;100.00;101787.66;5068569;28;20047;-70
2023/09/13 07:43:23;;;;;;;2.85;1.00;;;;;;;14.87;100.00;101780.03;5087535;28;20051;-70
2023/09/13 07:45:50;;;;;;;2.65;0.90;;;;;;;15.04;100.00;101765.34;5073425;28;20048;-69
2023/09/13 07:48:17;;;;;;;2.72;0.90;;;;;;;14.93;100.00;101786.88;5073045;28;20044;-70
2023/09/13 07:50:45;;;;;;;2.30;0.80;;;;;;;15.08;100.00;101780.97;5072842;28;20063;-69
2023/09/13 07:53:12;;;;;;;3.67;0.90;;;;;;;15.07;100.00;101775.75;5072664;28;20075;-70
2023/09/13 07:55:40;;;;;;;3.45;0.90;;;;;;;15.45;100.00;101768.06;5072954;28;20055;-70
2023/09/13 07:58:08;;;;;;;2.95;1.05;;;;;;;15.68;100.00;101764.47;5072187;28;20060;-69
2023/09/13 08:00:35;;;;;;;2.78;0.82;;;;;;;15.50;100.00;101761.66;5072653;28;20067;-70
2023/09/13 08:03:03;;;;;;;5.00;0.85;;;;;;;15.50;100.00;101761.66;5072357;28;20044;-69
2023/09/13 08:05:31;;;;;;;2.88;0.80;;;;;;;15.45;100.00;101765.44;5061883;28;20049;-71
2023/09/13 08:07:57;;;;;;;1.13;0.60;;;;;;;16.12;100.00;101767.81;5069673;28;20405;-71
2023/09/13 08:10:24;;;;;;;6.47;1.10;;;;;;;15.48;100.00;101775.88;5072700;28;20045;-69
2023/09/13 08:12:52;;;;;;;4.78;1.10;;;;;;;15.98;100.00;101775.50;5062940;28;20372;-69
2023/09/13 08:15:19;;;;;;;2.97;0.80;;;;;;;15.96;100.00;101785.28;5065905;28;20057;-70
2023/09/13 08:17:59;;;;;;;3.42;0.90;;;;;;;16.28;100.00;101786.50;5059158;28;20057;-70
2023/09/13 08:20:26;;;;;;;4.75;1.00;;;;;;;16.23;100.00;101785.84;5072071;28;20064;-70
2023/09/13 08:22:52;;;;;;;3.38;0.95;;;;;;;15.92;100.00;101784.56;5072324;28;20056;-70
2023/09/13 08:25:19;;;;;;;3.53;0.80;;;;;;;16.12;100.00;101791.59;5070042;28;20059;-69
2023/09/13 08:27:46;;;;;;;3.60;1.10;;;;;;;15.72;100.00;101780.13;5071639;28;20049;-69
2023/09/13 08:30:13;;;;;;;1.90;0.70;;;;;;;16.05;100.00;101784.88;5071567;28;20366;-70
2023/09/13 08:32:40;;;;;;;3.67;0.93;;;;;;;16.24;100.00;101790.22;5065165;28;20061;-69
2023/09/13 08:35:07;;;;;;;4.93;0.98;;;;;;;16.47;100.00;101783.88;5071269;28;20052;-69
2023/09/13 08:37:34;;;;;;;6.35;1.40;;;;;;;16.24;100.00;101781.44;5072009;28;20098;-69
2023/09/13 08:40:01;;;;;;;5.85;1.00;;;;;;;16.64;100.00;101792.81;5071725;28;20140;-68
2023/09/13 08:42:30;;;;;;;4.55;1.00;;;;;;;16.52;100.00;101797.75;5071895;28;20129;-69
2023/09/13 08:44:59;;;;;;;4.63;1.10;;;;;;;16.45;100.00;101798.97;5072264;28;20052;-69
2023/09/13 08:47:27;;;;;;;4.20;0.90;;;;;;;16.75;100.00;101805.53;5058740;28;20056;-69
2023/09/13 08:50:06;;;;;;;3.15;0.90;;;;;;;16.73;100.00;101800.31;5071404;28;20060;-70
2023/09/13 08:52:37;;;;;;;3.53;0.90;;;;;;;16.50;100.00;101801.38;5087960;28;20102;-69
2023/09/13 08:55:06;;;;;;;5.72;0.90;;;;;;;16.74;100.00;101795.91;5069140;28;20045;-69
2023/09/13 08:57:34;;;;;;;3.92;1.00;;;;;;;16.86;100.00;101805.94;5071603;28;20053;-70
2023/09/13 09:00:01;;;;;;;5.85;1.00;;;;;;;16.17;100.00;101807.25;5071774;28;20048;-69
2023/09/13 09:02:29;;;;;;;4.38;1.08;;;;;;;16.16;100.00;101807.34;5058672;28;20049;-70
2023/09/13 09:04:57;;;;;;;6.68;1.20;;;;;;;16.25;100.00;101796.34;5069878;28;20527;-69
2023/09/13 09:07:25;;;;;;;3.38;0.90;;;;;;;16.78;100.00;101808.91;5071890;28;20052;-68
2023/09/13 09:09:53;;;;;;;3.88;0.90;;;;;;;16.75;100.00;101805.53;5065525;28;20059;-69
2023/09/13 09:12:21;;;;;;;5.13;1.10;;;;;;;16.73;100.00;101802.13;5060320;28;20643;-70
2023/09/13 09:14:50;;;;;;;11.30;1.92;;;;;;;16.33;100.00;101802.16;5067327;28;20505;-69
2023/09/13 09:17:19;;;;;;;8.88;1.38;;;;;;;16.28;100.00;101812.06;5070747;28;20128;-69
2023/09/13 09:19:46;;;;;;;5.47;1.25;;;;;;;16.18;100.00;101805.47;5069351;28;20063;-69
2023/09/13 09:22:15;;;;;;;5.72;1.58;;;;;;;15.83;100.00;101802.56;5059505;28;20478;-69
2023/09/13 09:24:42;;;;;;;6.13;1.33;;;;;;;15.92;100.00;101804.84;5069751;28;20050;-69
2023/09/13 09:27:10;;;;;;;3.83;1.15;;;;;;;16.04;100.00;101803.44;5053932;28;20379;-69
2023/09/13 09:29:44;;;;;;;4.75;1.02;;;;;;;16.46;100.00;101802.47;5069642;28;20510;-69
2023/09/13 09:32:12;;;;;;;4.90;1.13;;;;;;;15.42;100.00;101798.06;5070670;28;20114;-69
2023/09/13 09:34:42;;;;;;;5.65;1.20;;;;;;;15.64;100.00;101789.28;5070382;28;21088;-69
2023/09/13 09:37:10;;;;;;;5.28;1.10;;;;;;;15.89;100.00;101786.47;5070781;28;20041;-69
2023/09/13 09:39:40;;;;;;;3.50;1.10;;;;;;;16.38;100.00;101784.31;5064034;28;20053;-69
2023/09/13 09:42:13;;;;;;;7.50;1.10;;;;;;;16.69;100.00;101782.88;5068339;28;20140;-69
2023/09/13 09:44:39;;;;;;;6.22;1.20;;;;;;;16.49;100.00;101779.38;5064812;28;20044;-69
2023/09/13 09:47:20;;;;;;;4.32;1.13;;;;;;;16.28;100.00;101780.38;5064820;28;20048;-68
2023/09/13 09:49:47;;;;;;;3.55;0.90;;;;;;;16.67;100.00;101776.81;5060884;28;20098;-69
2023/09/13 09:52:15;;;;;;;5.38;1.20;;;;;;;16.28;100.00;101775.06;5070997;28;20048;-69
2023/09/13 09:54:50;;;;;;;4.85;1.15;;;;;;;16.09;100.00;101780.31;5064722;28;20044;-69
2023/09/13 09:57:21;;;;;;;4.22;1.30;;;;;;;16.42;100.00;101775.31;5062365;28;20053;-69
2023/09/13 09:59:49;;;;;;;4.93;1.10;;;;;;;16.13;100.00;101769.56;5069568;28;20485;-69
2023/09/13 10:02:16;;;;;;;9.73;1.58;;;;;;;16.08;100.00;101760.97;5058288;28;20487;-69
2023/09/13 10:04:49;;;;;;;9.43;1.65;;;;;;;16.16;100.00;101760.63;5067077;28;20109;-69
2023/09/13 10:07:15;;;;;;;8.82;1.30;;;;;;;16.19;100.00;101754.34;5067210;28;20409;-69
2023/09/13 10:09:44;;;;;;;6.53;1.38;;;;;;;16.54;100.00;101747.47;5056582;28;20683;-69
2023/09/13 10:12:12;;;;;;;5.32;1.25;;;;;;;16.54;100.00;101746.56;5070253;28;20045;-69
2023/09/13 10:14:40;;;;;;;6.50;1.20;;;;;;;16.97;100.00;101741.94;5067557;28;20045;-69
2023/09/13 10:17:09;;;;;;;6.22;1.13;;;;;;;16.58;100.00;101758.75;5070528;28;20092;-69
2023/09/13 10:19:36;;;;;;;7.05;1.35;;;;;;;16.20;100.00;101764.88;5070044;28;20102;-69
2023/09/13 10:22:03;;;;;;;4.97;1.17;;;;;;;16.23;100.00;101766.50;5070317;28;20413;-69
2023/09/13 10:24:38;;;;;;;4.53;1.13;;;;;;;16.44;100.00;101756.75;5067152;28;20064;-69
2023/09/13 10:27:08;;;;;;;7.72;1.30;;;;;;;16.35;100.00;101773.88;5051828;28;20056;-69
2023/09/13 10:29:40;;;;;;;6.50;1.17;;;;;;;16.74;100.00;101766.81;5067836;28;20064;-69
2023/09/13 10:32:11;;;;;;;7.13;1.20;;;;;;;17.17;100.00;101751.53;5070217;28;20401;-69
2023/09/13 10:34:47;;;;;;;3.95;1.00;;;;;;;17.00;100.00;101766.47;5061012;28;20057;-69
2023/09/13 10:37:42;;;;;;;7.15;1.30;;;;;;;16.51;100.00;101771.38;5064220;28;20053;-69
2023/09/13 10:40:12;;;;;;;6.40;1.50;;;;;;;16.08;100.00;101770.69;5054206;28;20466;-69
2023/09/13 10:42:40;;;;;;;9.63;1.50;;;;;;;16.32;100.00;101766.97;5070188;28;20056;-69
2023/09/13 10:45:07;;;;;;;4.80;1.40;;;;;;;16.54;100.00;101765.09;5070136;28;20448;-69
2023/09/13 10:47:37;;;;;;;3.78;1.08;;;;;;;16.82;100.00;101767.28;5069539;28;20052;-70
2023/09/13 10:50:07;;;;;;;5.68;1.17;;;;;;;16.85;100.00;101770.69;5069031;28;20609;-70
2023/09/13 10:52:35;;;;;;;6.30;1.38;;;;;;;16.26;100.00;101771.66;5070255;28;20477;-70
2023/09/13 10:55:06;;;;;;;9.05;1.77;;;;;;;16.61;100.00;101779.72;5068818;28;20076;-70
2023/09/13 10:57:34;;;;;;;12.88;1.55;;;;;;;16.11;100.00;101771.41;5068956;28;20452;-70
2023/09/13 11:00:11;;;;;;;6.50;1.45;;;;;;;16.64;100.00;101761.97;5069280;28;20101;-70
2023/09/13 11:02:42;;;;;;;7.38;1.60;;;;;;;16.13;100.00;101764.28;5069478;28;20063;-70
2023/09/13 11:05:11;;;;;;;5.18;1.10;;;;;;;16.63;100.00;101765.53;5069572;28;20061;-70
2023/09/13 11:07:46;;;;;;;6.72;1.20;;;;;;;16.39;100.00;101753.44;5066115;28;20044;-69
2023/09/13 11:10:15;;;;;;;6.57;1.45;;;;;;;16.29;100.00;101761.81;5069235;28;20106;-69
2023/09/13 11:12:48;;;;;;;14.77;1.83;;;;;;;16.21;100.00;101755.16;5070233;28;20049;-69
2023/09/13 11:15:26;;;;;;;6.82;1.40;;;;;;;16.68;100.00;101738.88;5068666;28;20131;-69
2023/09/13 11:17:54;;;;;;;10.57;1.80;;;;;;;16.65;100.00;101755.72;5069582;28;20058;-69
2023/09/13 11:20:38;;;;;;;7.85;1.52;;;;;;;16.59;100.00;101750.75;5065913;28;20107;-69
2023/09/13 11:23:10;;;;;;;;;;;;;;;16.29;100.00;101751.22;5068768;28;20053;-69
2023/09/13 11:26:02;;;;;;;4.75;1.23;;;;;;;16.59;100.00;101745.47;5058522;28;20115;-69
2023/09/13 11:28:37;;;;;;;4.63;1.13;;;;;;;16.78;100.00;101742.78;5060323;28;20458;-69
2023/09/13 11:31:06;;;;;;;5.75;1.25;;;;;;;16.73;100.00;101738.66;5056346;28;20052;-69